sensor_id;sensor_type;location;lat;lon;timestamp;P1;durP1;ratioP1;P2;durP2;ratioP2
40433;SDS011;26146;51.114;5.654;2023-07-09T00:00:18;11.53;;;6.30;;
40433;SDS011;26146;51.114;5.654;2023-07-09T00:04:19;10.95;;;6.32;;
40433;SDS011;26146;51.114;5.654;2023-07-09T00:12:28;12.15;;;6.70;;
40433;SDS011;26146;51.114;5.654;2023-07-09T00:16:29;13.73;;;6.63;;
40433;SDS011;26146;51.114;5.654;2023-07-09T00:20:30;12.05;;;6.70;;
40433;SDS011;26146;51.114;5.654;2023-07-09T00:24:32;12.15;;;6.50;;
40433;SDS011;26146;51.114;5.654;2023-07-09T00:28:32;11.45;;;6.20;;
40433;SDS011;26146;51.114;5.654;2023-07-09T00:32:33;10.93;;;5.78;;
40433;SDS011;26146;51.114;5.654;2023-07-09T00:36:43;15.02;;;6.32;;
40433;SDS011;26146;51.114;5.654;2023-07-09T00:40:48;11.35;;;6.18;;
40433;SDS011;26146;51.114;5.654;2023-07-09T00:45:15;13.20;;;6.18;;
40433;SDS011;26146;51.114;5.654;2023-07-09T00:49:56;11.35;;;6.35;;
40433;SDS011;26146;51.114;5.654;2023-07-09T00:54:02;12.75;;;7.00;;
40433;SDS011;26146;51.114;5.654;2023-07-09T00:58:14;14.05;;;8.13;;
40433;SDS011;26146;51.114;5.654;2023-07-09T01:02:16;14.75;;;7.72;;
40433;SDS011;26146;51.114;5.654;2023-07-09T01:06:25;13.50;;;8.00;;
40433;SDS011;26146;51.114;5.654;2023-07-09T01:10:32;15.82;;;8.27;;
40433;SDS011;26146;51.114;5.654;2023-07-09T01:14:33;12.98;;;7.95;;
40433;SDS011;26146;51.114;5.654;2023-07-09T01:18:36;15.15;;;8.18;;
40433;SDS011;26146;51.114;5.654;2023-07-09T01:22:37;15.32;;;7.68;;
40433;SDS011;26146;51.114;5.654;2023-07-09T01:26:38;13.40;;;7.72;;
40433;SDS011;26146;51.114;5.654;2023-07-09T01:30:40;13.35;;;7.75;;
40433;SDS011;26146;51.114;5.654;2023-07-09T01:34:41;14.80;;;8.00;;
40433;SDS011;26146;51.114;5.654;2023-07-09T01:38:43;11.60;;;6.65;;
40433;SDS011;26146;51.114;5.654;2023-07-09T01:42:45;13.85;;;7.10;;
40433;SDS011;26146;51.114;5.654;2023-07-09T01:46:48;14.13;;;7.05;;
40433;SDS011;26146;51.114;5.654;2023-07-09T01:50:49;13.50;;;7.40;;
40433;SDS011;26146;51.114;5.654;2023-07-09T01:54:52;14.10;;;7.13;;
40433;SDS011;26146;51.114;5.654;2023-07-09T01:58:53;12.13;;;7.18;;
40433;SDS011;26146;51.114;5.654;2023-07-09T02:03:01;13.13;;;6.53;;
40433;SDS011;26146;51.114;5.654;2023-07-09T02:07:02;10.35;;;5.82;;
40433;SDS011;26146;51.114;5.654;2023-07-09T02:11:03;13.15;;;6.03;;
40433;SDS011;26146;51.114;5.654;2023-07-09T02:15:05;12.43;;;6.10;;
40433;SDS011;26146;51.114;5.654;2023-07-09T02:19:06;12.98;;;6.03;;
40433;SDS011;26146;51.114;5.654;2023-07-09T02:23:07;12.90;;;6.00;;
40433;SDS011;26146;51.114;5.654;2023-07-09T02:27:09;10.50;;;5.53;;
40433;SDS011;26146;51.114;5.654;2023-07-09T02:31:13;13.55;;;6.72;;
40433;SDS011;26146;51.114;5.654;2023-07-09T02:35:16;16.08;;;7.38;;
40433;SDS011;26146;51.114;5.654;2023-07-09T02:39:17;14.27;;;7.55;;
40433;SDS011;26146;51.114;5.654;2023-07-09T02:43:18;16.00;;;8.60;;
40433;SDS011;26146;51.114;5.654;2023-07-09T02:47:19;14.05;;;7.63;;
40433;SDS011;26146;51.114;5.654;2023-07-09T02:51:20;11.82;;;6.63;;
40433;SDS011;26146;51.114;5.654;2023-07-09T02:55:21;11.15;;;6.00;;
40433;SDS011;26146;51.114;5.654;2023-07-09T02:59:22;12.05;;;6.05;;
40433;SDS011;26146;51.114;5.654;2023-07-09T03:03:24;12.45;;;6.82;;
40433;SDS011;26146;51.114;5.654;2023-07-09T03:07:25;15.73;;;6.97;;
40433;SDS011;26146;51.114;5.654;2023-07-09T03:11:27;11.80;;;6.75;;
40433;SDS011;26146;51.114;5.654;2023-07-09T03:15:32;14.18;;;7.72;;
40433;SDS011;26146;51.114;5.654;2023-07-09T03:19:33;16.13;;;8.27;;
40433;SDS011;26146;51.114;5.654;2023-07-09T03:23:34;15.02;;;8.40;;
40433;SDS011;26146;51.114;5.654;2023-07-09T03:27:35;14.63;;;8.10;;
40433;SDS011;26146;51.114;5.654;2023-07-09T03:31:36;16.00;;;8.95;;
40433;SDS011;26146;51.114;5.654;2023-07-09T03:35:37;15.57;;;8.65;;
40433;SDS011;26146;51.114;5.654;2023-07-09T03:39:38;15.25;;;8.23;;
40433;SDS011;26146;51.114;5.654;2023-07-09T03:43:39;16.55;;;8.48;;
40433;SDS011;26146;51.114;5.654;2023-07-09T03:47:40;15.07;;;9.07;;
40433;SDS011;26146;51.114;5.654;2023-07-09T03:51:41;15.50;;;9.13;;
40433;SDS011;26146;51.114;5.654;2023-07-09T03:55:44;13.65;;;7.95;;
40433;SDS011;26146;51.114;5.654;2023-07-09T03:59:46;15.10;;;8.45;;
40433;SDS011;26146;51.114;5.654;2023-07-09T04:03:47;16.02;;;7.93;;
40433;SDS011;26146;51.114;5.654;2023-07-09T04:07:48;13.73;;;7.53;;
40433;SDS011;26146;51.114;5.654;2023-07-09T04:11:50;13.88;;;7.50;;
40433;SDS011;26146;51.114;5.654;2023-07-09T04:15:50;14.65;;;7.57;;
40433;SDS011;26146;51.114;5.654;2023-07-09T04:19:52;17.50;;;8.02;;
40433;SDS011;26146;51.114;5.654;2023-07-09T04:23:53;13.05;;;7.53;;
40433;SDS011;26146;51.114;5.654;2023-07-09T04:27:55;13.02;;;7.45;;
40433;SDS011;26146;51.114;5.654;2023-07-09T04:31:56;12.45;;;7.15;;
40433;SDS011;26146;51.114;5.654;2023-07-09T04:35:57;13.73;;;7.47;;
40433;SDS011;26146;51.114;5.654;2023-07-09T04:39:58;13.13;;;7.28;;
40433;SDS011;26146;51.114;5.654;2023-07-09T04:43:59;13.73;;;7.30;;
40433;SDS011;26146;51.114;5.654;2023-07-09T04:48:00;14.60;;;7.07;;
40433;SDS011;26146;51.114;5.654;2023-07-09T04:52:01;15.00;;;7.28;;
40433;SDS011;26146;51.114;5.654;2023-07-09T04:56:02;14.82;;;7.20;;
40433;SDS011;26146;51.114;5.654;2023-07-09T05:00:04;15.20;;;7.80;;
40433;SDS011;26146;51.114;5.654;2023-07-09T05:04:05;13.98;;;7.05;;
40433;SDS011;26146;51.114;5.654;2023-07-09T05:08:07;14.35;;;7.45;;
40433;SDS011;26146;51.114;5.654;2023-07-09T05:12:08;12.25;;;6.82;;
40433;SDS011;26146;51.114;5.654;2023-07-09T05:16:09;14.77;;;7.45;;
40433;SDS011;26146;51.114;5.654;2023-07-09T05:20:10;14.15;;;7.00;;
40433;SDS011;26146;51.114;5.654;2023-07-09T05:24:11;14.30;;;7.30;;
40433;SDS011;26146;51.114;5.654;2023-07-09T05:28:12;13.60;;;6.32;;
40433;SDS011;26146;51.114;5.654;2023-07-09T05:32:13;12.18;;;6.35;;
40433;SDS011;26146;51.114;5.654;2023-07-09T05:36:14;12.45;;;6.55;;
40433;SDS011;26146;51.114;5.654;2023-07-09T05:40:16;14.23;;;6.75;;
40433;SDS011;26146;51.114;5.654;2023-07-09T05:44:17;12.00;;;6.55;;
40433;SDS011;26146;51.114;5.654;2023-07-09T05:48:18;11.05;;;5.68;;
40433;SDS011;26146;51.114;5.654;2023-07-09T05:52:20;11.73;;;5.70;;
40433;SDS011;26146;51.114;5.654;2023-07-09T05:56:22;11.63;;;5.60;;
40433;SDS011;26146;51.114;5.654;2023-07-09T06:00:23;10.50;;;5.68;;
40433;SDS011;26146;51.114;5.654;2023-07-09T06:04:24;11.48;;;5.47;;
40433;SDS011;26146;51.114;5.654;2023-07-09T06:08:25;11.80;;;5.75;;
40433;SDS011;26146;51.114;5.654;2023-07-09T06:12:26;12.23;;;5.82;;
40433;SDS011;26146;51.114;5.654;2023-07-09T06:16:27;11.60;;;5.63;;
40433;SDS011;26146;51.114;5.654;2023-07-09T06:20:29;12.80;;;5.70;;
40433;SDS011;26146;51.114;5.654;2023-07-09T06:24:30;11.18;;;5.35;;
40433;SDS011;26146;51.114;5.654;2023-07-09T06:28:31;10.85;;;5.30;;
40433;SDS011;26146;51.114;5.654;2023-07-09T06:32:32;9.85;;;4.85;;
40433;SDS011;26146;51.114;5.654;2023-07-09T06:36:33;9.57;;;4.68;;
40433;SDS011;26146;51.114;5.654;2023-07-09T06:40:34;9.38;;;4.47;;
40433;SDS011;26146;51.114;5.654;2023-07-09T06:44:35;11.02;;;4.72;;
40433;SDS011;26146;51.114;5.654;2023-07-09T06:48:36;11.43;;;4.63;;
40433;SDS011;26146;51.114;5.654;2023-07-09T06:52:37;10.98;;;5.13;;
40433;SDS011;26146;51.114;5.654;2023-07-09T06:56:38;11.30;;;4.75;;
40433;SDS011;26146;51.114;5.654;2023-07-09T07:00:41;10.75;;;4.70;;
40433;SDS011;26146;51.114;5.654;2023-07-09T07:04:45;10.23;;;4.70;;
40433;SDS011;26146;51.114;5.654;2023-07-09T07:08:46;10.35;;;4.43;;
40433;SDS011;26146;51.114;5.654;2023-07-09T07:12:47;10.60;;;4.32;;
40433;SDS011;26146;51.114;5.654;2023-07-09T07:16:50;8.50;;;4.27;;
40433;SDS011;26146;51.114;5.654;2023-07-09T07:20:51;9.43;;;3.97;;
40433;SDS011;26146;51.114;5.654;2023-07-09T07:24:52;9.38;;;4.28;;
40433;SDS011;26146;51.114;5.654;2023-07-09T07:28:53;8.68;;;3.60;;
40433;SDS011;26146;51.114;5.654;2023-07-09T07:32:54;8.95;;;3.83;;
40433;SDS011;26146;51.114;5.654;2023-07-09T07:36:55;9.35;;;3.88;;
40433;SDS011;26146;51.114;5.654;2023-07-09T07:40:56;10.05;;;3.90;;
40433;SDS011;26146;51.114;5.654;2023-07-09T07:44:57;9.38;;;3.75;;
40433;SDS011;26146;51.114;5.654;2023-07-09T07:48:58;9.48;;;3.65;;
40433;SDS011;26146;51.114;5.654;2023-07-09T07:53:00;8.45;;;3.83;;
40433;SDS011;26146;51.114;5.654;2023-07-09T07:57:01;9.27;;;3.50;;
40433;SDS011;26146;51.114;5.654;2023-07-09T08:01:02;9.95;;;3.80;;
40433;SDS011;26146;51.114;5.654;2023-07-09T08:05:04;8.93;;;3.80;;
40433;SDS011;26146;51.114;5.654;2023-07-09T08:09:05;10.40;;;3.85;;
40433;SDS011;26146;51.114;5.654;2023-07-09T08:13:06;10.18;;;3.80;;
40433;SDS011;26146;51.114;5.654;2023-07-09T08:17:07;9.55;;;3.78;;
40433;SDS011;26146;51.114;5.654;2023-07-09T08:21:09;11.40;;;4.32;;
40433;SDS011;26146;51.114;5.654;2023-07-09T08:25:10;8.93;;;3.90;;
40433;SDS011;26146;51.114;5.654;2023-07-09T08:29:11;10.48;;;4.10;;
40433;SDS011;26146;51.114;5.654;2023-07-09T08:33:12;8.85;;;3.75;;
40433;SDS011;26146;51.114;5.654;2023-07-09T08:37:12;9.48;;;3.90;;
40433;SDS011;26146;51.114;5.654;2023-07-09T08:41:24;9.10;;;4.00;;
40433;SDS011;26146;51.114;5.654;2023-07-09T08:49:56;9.10;;;4.10;;
40433;SDS011;26146;51.114;5.654;2023-07-09T08:54:00;8.73;;;3.72;;
40433;SDS011;26146;51.114;5.654;2023-07-09T08:58:03;8.25;;;3.70;;
40433;SDS011;26146;51.114;5.654;2023-07-09T09:02:30;9.45;;;3.90;;
40433;SDS011;26146;51.114;5.654;2023-07-09T09:06:35;10.05;;;4.00;;
40433;SDS011;26146;51.114;5.654;2023-07-09T09:10:44;8.90;;;3.78;;
40433;SDS011;26146;51.114;5.654;2023-07-09T09:15:11;9.38;;;3.78;;
40433;SDS011;26146;51.114;5.654;2023-07-09T09:19:19;10.00;;;3.95;;
40433;SDS011;26146;51.114;5.654;2023-07-09T09:23:27;10.77;;;3.80;;
40433;SDS011;26146;51.114;5.654;2023-07-09T09:27:38;8.52;;;3.55;;
40433;SDS011;26146;51.114;5.654;2023-07-09T09:31:39;10.82;;;3.65;;
40433;SDS011;26146;51.114;5.654;2023-07-09T09:35:43;9.90;;;3.75;;
40433;SDS011;26146;51.114;5.654;2023-07-09T09:39:45;9.13;;;3.50;;
40433;SDS011;26146;51.114;5.654;2023-07-09T09:43:49;9.75;;;3.42;;
40433;SDS011;26146;51.114;5.654;2023-07-09T09:47:52;8.95;;;3.72;;
40433;SDS011;26146;51.114;5.654;2023-07-09T09:52:03;8.38;;;3.42;;
40433;SDS011;26146;51.114;5.654;2023-07-09T09:56:10;8.85;;;3.55;;
40433;SDS011;26146;51.114;5.654;2023-07-09T10:00:19;10.45;;;3.65;;
40433;SDS011;26146;51.114;5.654;2023-07-09T10:04:27;10.45;;;3.50;;
40433;SDS011;26146;51.114;5.654;2023-07-09T10:17:28;9.35;;;3.78;;
40433;SDS011;26146;51.114;5.654;2023-07-09T10:34:57;9.15;;;3.60;;
40433;SDS011;26146;51.114;5.654;2023-07-09T10:39:09;8.52;;;3.50;;
40433;SDS011;26146;51.114;5.654;2023-07-09T10:43:37;9.15;;;3.65;;
40433;SDS011;26146;51.114;5.654;2023-07-09T10:47:44;8.85;;;3.95;;
40433;SDS011;26146;51.114;5.654;2023-07-09T10:51:52;8.00;;;3.70;;
40433;SDS011;26146;51.114;5.654;2023-07-09T10:56:00;7.57;;;3.50;;
40433;SDS011;26146;51.114;5.654;2023-07-09T11:00:02;8.63;;;3.28;;
40433;SDS011;26146;51.114;5.654;2023-07-09T11:04:11;7.88;;;3.25;;
40433;SDS011;26146;51.114;5.654;2023-07-09T11:08:37;7.90;;;3.70;;
40433;SDS011;26146;51.114;5.654;2023-07-09T11:12:41;10.25;;;3.20;;
40433;SDS011;26146;51.114;5.654;2023-07-09T11:16:45;6.82;;;2.95;;
40433;SDS011;26146;51.114;5.654;2023-07-09T11:20:46;8.27;;;2.80;;
40433;SDS011;26146;51.114;5.654;2023-07-09T11:29:16;7.07;;;3.15;;
40433;SDS011;26146;51.114;5.654;2023-07-09T11:33:19;6.65;;;2.88;;
40433;SDS011;26146;51.114;5.654;2023-07-09T11:37:29;8.88;;;2.80;;
40433;SDS011;26146;51.114;5.654;2023-07-09T11:41:35;6.40;;;2.70;;
40433;SDS011;26146;51.114;5.654;2023-07-09T11:45:46;8.00;;;2.78;;
40433;SDS011;26146;51.114;5.654;2023-07-09T11:49:57;7.15;;;2.70;;
40433;SDS011;26146;51.114;5.654;2023-07-09T11:54:02;7.57;;;2.83;;
40433;SDS011;26146;51.114;5.654;2023-07-09T11:58:04;8.75;;;2.58;;
40433;SDS011;26146;51.114;5.654;2023-07-09T12:02:13;8.00;;;2.80;;
40433;SDS011;26146;51.114;5.654;2023-07-09T12:10:27;9.10;;;2.65;;
40433;SDS011;26146;51.114;5.654;2023-07-09T12:14:33;7.43;;;2.72;;
40433;SDS011;26146;51.114;5.654;2023-07-09T12:18:34;7.03;;;2.85;;
40433;SDS011;26146;51.114;5.654;2023-07-09T12:22:35;8.23;;;2.83;;
40433;SDS011;26146;51.114;5.654;2023-07-09T12:26:36;7.20;;;2.97;;
40433;SDS011;26146;51.114;5.654;2023-07-09T12:30:37;8.27;;;2.88;;
40433;SDS011;26146;51.114;5.654;2023-07-09T12:34:40;8.50;;;3.20;;
40433;SDS011;26146;51.114;5.654;2023-07-09T12:38:41;6.78;;;2.85;;
40433;SDS011;26146;51.114;5.654;2023-07-09T12:42:44;7.97;;;2.70;;
40433;SDS011;26146;51.114;5.654;2023-07-09T12:46:45;10.93;;;2.80;;
40433;SDS011;26146;51.114;5.654;2023-07-09T12:50:49;7.43;;;2.67;;
40433;SDS011;26146;51.114;5.654;2023-07-09T12:58:58;7.43;;;3.22;;
40433;SDS011;26146;51.114;5.654;2023-07-09T13:02:59;9.43;;;3.83;;
40433;SDS011;26146;51.114;5.654;2023-07-09T13:07:00;10.30;;;3.80;;
40433;SDS011;26146;51.114;5.654;2023-07-09T13:11:02;9.48;;;3.80;;
40433;SDS011;26146;51.114;5.654;2023-07-09T13:15:03;13.25;;;4.28;;
40433;SDS011;26146;51.114;5.654;2023-07-09T13:19:04;11.18;;;4.60;;
40433;SDS011;26146;51.114;5.654;2023-07-09T13:27:17;12.35;;;5.45;;
40433;SDS011;26146;51.114;5.654;2023-07-09T13:31:19;15.30;;;6.10;;
40433;SDS011;26146;51.114;5.654;2023-07-09T13:35:20;12.82;;;7.18;;
40433;SDS011;26146;51.114;5.654;2023-07-09T13:39:22;14.18;;;8.55;;
40433;SDS011;26146;51.114;5.654;2023-07-09T13:43:30;12.95;;;6.28;;
40433;SDS011;26146;51.114;5.654;2023-07-09T13:47:33;15.77;;;9.30;;
40433;SDS011;26146;51.114;5.654;2023-07-09T13:51:35;16.63;;;9.80;;
40433;SDS011;26146;51.114;5.654;2023-07-09T13:55:36;16.65;;;9.55;;
40433;SDS011;26146;51.114;5.654;2023-07-09T13:59:37;14.82;;;8.48;;
40433;SDS011;26146;51.114;5.654;2023-07-09T14:03:38;14.73;;;8.50;;
40433;SDS011;26146;51.114;5.654;2023-07-09T14:07:41;15.88;;;8.20;;
40433;SDS011;26146;51.114;5.654;2023-07-09T14:11:46;16.13;;;8.52;;
40433;SDS011;26146;51.114;5.654;2023-07-09T14:15:49;14.27;;;8.05;;
40433;SDS011;26146;51.114;5.654;2023-07-09T14:19:51;15.98;;;7.90;;
40433;SDS011;26146;51.114;5.654;2023-07-09T14:23:53;13.65;;;7.10;;
40433;SDS011;26146;51.114;5.654;2023-07-09T14:27:54;12.98;;;6.55;;
40433;SDS011;26146;51.114;5.654;2023-07-09T14:31:55;12.40;;;6.18;;
40433;SDS011;26146;51.114;5.654;2023-07-09T14:35:56;12.10;;;6.22;;
40433;SDS011;26146;51.114;5.654;2023-07-09T14:39:57;11.20;;;5.90;;
40433;SDS011;26146;51.114;5.654;2023-07-09T14:43:58;11.27;;;5.60;;
40433;SDS011;26146;51.114;5.654;2023-07-09T14:47:59;12.85;;;5.20;;
40433;SDS011;26146;51.114;5.654;2023-07-09T14:52:00;10.30;;;5.28;;
40433;SDS011;26146;51.114;5.654;2023-07-09T14:56:01;9.75;;;4.53;;
40433;SDS011;26146;51.114;5.654;2023-07-09T15:00:04;10.25;;;4.60;;
40433;SDS011;26146;51.114;5.654;2023-07-09T15:04:31;9.18;;;4.70;;
40433;SDS011;26146;51.114;5.654;2023-07-09T15:08:32;8.57;;;4.18;;
40433;SDS011;26146;51.114;5.654;2023-07-09T15:12:34;9.80;;;4.60;;
40433;SDS011;26146;51.114;5.654;2023-07-09T15:16:35;10.93;;;4.00;;
40433;SDS011;26146;51.114;5.654;2023-07-09T15:24:45;9.13;;;4.17;;
40433;SDS011;26146;51.114;5.654;2023-07-09T15:28:48;10.15;;;4.38;;
40433;SDS011;26146;51.114;5.654;2023-07-09T15:32:50;10.45;;;4.63;;
40433;SDS011;26146;51.114;5.654;2023-07-09T15:36:52;9.98;;;4.80;;
40433;SDS011;26146;51.114;5.654;2023-07-09T15:40:55;10.13;;;5.47;;
40433;SDS011;26146;51.114;5.654;2023-07-09T15:44:57;9.25;;;4.85;;
40433;SDS011;26146;51.114;5.654;2023-07-09T15:48:58;9.30;;;5.10;;
40433;SDS011;26146;51.114;5.654;2023-07-09T15:52:59;9.60;;;4.80;;
40433;SDS011;26146;51.114;5.654;2023-07-09T15:57:00;9.98;;;5.00;;
40433;SDS011;26146;51.114;5.654;2023-07-09T16:01:01;10.43;;;5.13;;
40433;SDS011;26146;51.114;5.654;2023-07-09T16:05:04;9.32;;;4.95;;
40433;SDS011;26146;51.114;5.654;2023-07-09T16:09:15;10.23;;;5.70;;
40433;SDS011;26146;51.114;5.654;2023-07-09T16:13:20;10.57;;;5.35;;
40433;SDS011;26146;51.114;5.654;2023-07-09T16:17:23;10.48;;;5.00;;
40433;SDS011;26146;51.114;5.654;2023-07-09T16:21:25;11.70;;;6.40;;
40433;SDS011;26146;51.114;5.654;2023-07-09T16:25:34;11.38;;;5.93;;
40433;SDS011;26146;51.114;5.654;2023-07-09T16:29:38;10.27;;;5.60;;
40433;SDS011;26146;51.114;5.654;2023-07-09T16:33:39;12.80;;;4.78;;
40433;SDS011;26146;51.114;5.654;2023-07-09T16:37:41;9.45;;;4.07;;
40433;SDS011;26146;51.114;5.654;2023-07-09T16:41:44;9.07;;;3.92;;
40433;SDS011;26146;51.114;5.654;2023-07-09T16:45:45;10.10;;;4.20;;
40433;SDS011;26146;51.114;5.654;2023-07-09T16:49:47;9.80;;;4.65;;
40433;SDS011;26146;51.114;5.654;2023-07-09T16:53:48;9.05;;;4.22;;
40433;SDS011;26146;51.114;5.654;2023-07-09T16:57:52;8.40;;;4.03;;
40433;SDS011;26146;51.114;5.654;2023-07-09T17:01:54;9.02;;;3.85;;
40433;SDS011;26146;51.114;5.654;2023-07-09T17:05:55;9.40;;;4.28;;
40433;SDS011;26146;51.114;5.654;2023-07-09T17:09:56;11.35;;;4.40;;
40433;SDS011;26146;51.114;5.654;2023-07-09T17:14:01;9.68;;;5.40;;
40433;SDS011;26146;51.114;5.654;2023-07-09T17:18:04;9.00;;;4.10;;
40433;SDS011;26146;51.114;5.654;2023-07-09T17:22:31;8.30;;;3.78;;
40433;SDS011;26146;51.114;5.654;2023-07-09T17:26:33;8.30;;;4.05;;
40433;SDS011;26146;51.114;5.654;2023-07-09T17:30:34;10.07;;;4.50;;
40433;SDS011;26146;51.114;5.654;2023-07-09T17:34:35;10.63;;;4.45;;
40433;SDS011;26146;51.114;5.654;2023-07-09T17:38:37;8.18;;;3.90;;
40433;SDS011;26146;51.114;5.654;2023-07-09T17:42:38;9.40;;;3.88;;
40433;SDS011;26146;51.114;5.654;2023-07-09T17:46:47;8.35;;;3.92;;
40433;SDS011;26146;51.114;5.654;2023-07-09T17:50:50;9.93;;;4.50;;
40433;SDS011;26146;51.114;5.654;2023-07-09T17:54:51;9.23;;;3.92;;
40433;SDS011;26146;51.114;5.654;2023-07-09T17:58:52;9.93;;;4.00;;
40433;SDS011;26146;51.114;5.654;2023-07-09T18:02:56;9.93;;;5.30;;
40433;SDS011;26146;51.114;5.654;2023-07-09T18:07:05;9.63;;;4.53;;
40433;SDS011;26146;51.114;5.654;2023-07-09T18:11:20;9.70;;;5.03;;
40433;SDS011;26146;51.114;5.654;2023-07-09T18:15:25;10.55;;;5.40;;
40433;SDS011;26146;51.114;5.654;2023-07-09T18:19:27;9.45;;;4.63;;
40433;SDS011;26146;51.114;5.654;2023-07-09T18:23:28;9.27;;;4.80;;
40433;SDS011;26146;51.114;5.654;2023-07-09T18:27:31;10.48;;;4.95;;
40433;SDS011;26146;51.114;5.654;2023-07-09T18:31:35;8.55;;;4.38;;
40433;SDS011;26146;51.114;5.654;2023-07-09T18:35:37;9.18;;;4.38;;
40433;SDS011;26146;51.114;5.654;2023-07-09T18:39:38;10.60;;;4.93;;
40433;SDS011;26146;51.114;5.654;2023-07-09T18:43:40;10.50;;;4.75;;
40433;SDS011;26146;51.114;5.654;2023-07-09T18:47:41;9.18;;;5.18;;
40433;SDS011;26146;51.114;5.654;2023-07-09T18:51:43;9.48;;;4.88;;
40433;SDS011;26146;51.114;5.654;2023-07-09T18:55:45;11.40;;;5.20;;
40433;SDS011;26146;51.114;5.654;2023-07-09T18:59:46;12.38;;;5.75;;
40433;SDS011;26146;51.114;5.654;2023-07-09T19:03:47;11.48;;;5.47;;
40433;SDS011;26146;51.114;5.654;2023-07-09T19:07:52;12.35;;;4.57;;
40433;SDS011;26146;51.114;5.654;2023-07-09T19:11:54;10.60;;;4.28;;
40433;SDS011;26146;51.114;5.654;2023-07-09T19:15:55;10.65;;;4.65;;
40433;SDS011;26146;51.114;5.654;2023-07-09T19:19:59;10.83;;;5.10;;
40433;SDS011;26146;51.114;5.654;2023-07-09T19:24:00;11.00;;;5.10;;
40433;SDS011;26146;51.114;5.654;2023-07-09T19:28:02;12.13;;;5.68;;
40433;SDS011;26146;51.114;5.654;2023-07-09T19:32:05;11.77;;;5.50;;
40433;SDS011;26146;51.114;5.654;2023-07-09T19:36:20;11.30;;;5.38;;
40433;SDS011;26146;51.114;5.654;2023-07-09T19:40:24;12.48;;;5.35;;
40433;SDS011;26146;51.114;5.654;2023-07-09T19:44:28;12.63;;;5.30;;
40433;SDS011;26146;51.114;5.654;2023-07-09T19:48:29;12.70;;;5.38;;
40433;SDS011;26146;51.114;5.654;2023-07-09T19:52:30;13.05;;;5.45;;
40433;SDS011;26146;51.114;5.654;2023-07-09T19:56:31;12.30;;;4.93;;
40433;SDS011;26146;51.114;5.654;2023-07-09T20:00:32;11.80;;;4.93;;
40433;SDS011;26146;51.114;5.654;2023-07-09T20:04:33;10.25;;;4.78;;
40433;SDS011;26146;51.114;5.654;2023-07-09T20:08:34;10.90;;;4.63;;
40433;SDS011;26146;51.114;5.654;2023-07-09T20:12:36;11.02;;;4.15;;
40433;SDS011;26146;51.114;5.654;2023-07-09T20:16:37;12.10;;;4.80;;
40433;SDS011;26146;51.114;5.654;2023-07-09T20:20:38;9.75;;;4.53;;
40433;SDS011;26146;51.114;5.654;2023-07-09T20:24:39;11.25;;;4.70;;
40433;SDS011;26146;51.114;5.654;2023-07-09T20:28:41;12.23;;;4.57;;
40433;SDS011;26146;51.114;5.654;2023-07-09T20:32:42;9.85;;;4.80;;
40433;SDS011;26146;51.114;5.654;2023-07-09T20:36:46;9.55;;;4.18;;
40433;SDS011;26146;51.114;5.654;2023-07-09T20:40:48;9.57;;;3.83;;
40433;SDS011;26146;51.114;5.654;2023-07-09T20:44:52;8.98;;;3.70;;
40433;SDS011;26146;51.114;5.654;2023-07-09T20:48:57;8.30;;;3.78;;
40433;SDS011;26146;51.114;5.654;2023-07-09T20:52:59;9.02;;;4.10;;
40433;SDS011;26146;51.114;5.654;2023-07-09T20:57:01;8.68;;;4.30;;
40433;SDS011;26146;51.114;5.654;2023-07-09T21:05:09;10.68;;;4.43;;
40433;SDS011;26146;51.114;5.654;2023-07-09T21:09:22;9.05;;;4.43;;
40433;SDS011;26146;51.114;5.654;2023-07-09T21:13:30;11.10;;;4.43;;
40433;SDS011;26146;51.114;5.654;2023-07-09T21:17:32;10.02;;;4.65;;
40433;SDS011;26146;51.114;5.654;2023-07-09T21:21:33;11.73;;;4.53;;
40433;SDS011;26146;51.114;5.654;2023-07-09T21:25:34;11.88;;;4.55;;
40433;SDS011;26146;51.114;5.654;2023-07-09T21:29:35;9.80;;;4.40;;
40433;SDS011;26146;51.114;5.654;2023-07-09T21:33:36;9.00;;;4.47;;
40433;SDS011;26146;51.114;5.654;2023-07-09T21:37:37;11.05;;;4.40;;
40433;SDS011;26146;51.114;5.654;2023-07-09T21:41:38;9.30;;;4.20;;
40433;SDS011;26146;51.114;5.654;2023-07-09T21:45:40;10.40;;;4.45;;
40433;SDS011;26146;51.114;5.654;2023-07-09T21:49:43;9.17;;;4.63;;
40433;SDS011;26146;51.114;5.654;2023-07-09T21:53:44;10.55;;;4.60;;
40433;SDS011;26146;51.114;5.654;2023-07-09T21:57:45;10.23;;;4.53;;
40433;SDS011;26146;51.114;5.654;2023-07-09T22:01:47;8.85;;;4.55;;
40433;SDS011;26146;51.114;5.654;2023-07-09T22:05:51;11.20;;;4.93;;
40433;SDS011;26146;51.114;5.654;2023-07-09T22:09:53;10.10;;;4.78;;
40433;SDS011;26146;51.114;5.654;2023-07-09T22:13:55;10.85;;;4.75;;
40433;SDS011;26146;51.114;5.654;2023-07-09T22:17:58;9.80;;;4.55;;
40433;SDS011;26146;51.114;5.654;2023-07-09T22:21:59;11.35;;;4.60;;
40433;SDS011;26146;51.114;5.654;2023-07-09T22:26:00;10.73;;;4.50;;
40433;SDS011;26146;51.114;5.654;2023-07-09T22:30:01;12.80;;;4.68;;
40433;SDS011;26146;51.114;5.654;2023-07-09T22:34:12;10.18;;;4.30;;
40433;SDS011;26146;51.114;5.654;2023-07-09T22:38:21;10.35;;;4.10;;
40433;SDS011;26146;51.114;5.654;2023-07-09T22:42:24;10.18;;;4.20;;
40433;SDS011;26146;51.114;5.654;2023-07-09T22:46:25;9.82;;;4.60;;
40433;SDS011;26146;51.114;5.654;2023-07-09T22:50:34;9.18;;;3.83;;
40433;SDS011;26146;51.114;5.654;2023-07-09T22:54:37;11.27;;;4.25;;
40433;SDS011;26146;51.114;5.654;2023-07-09T22:58:38;9.80;;;4.45;;
40433;SDS011;26146;51.114;5.654;2023-07-09T23:02:39;10.13;;;4.38;;
40433;SDS011;26146;51.114;5.654;2023-07-09T23:06:40;11.40;;;4.38;;
40433;SDS011;26146;51.114;5.654;2023-07-09T23:10:41;12.63;;;4.30;;
40433;SDS011;26146;51.114;5.654;2023-07-09T23:14:42;9.82;;;3.90;;
40433;SDS011;26146;51.114;5.654;2023-07-09T23:18:43;10.45;;;4.20;;
40433;SDS011;26146;51.114;5.654;2023-07-09T23:22:45;10.52;;;4.20;;
40433;SDS011;26146;51.114;5.654;2023-07-09T23:26:47;9.77;;;4.07;;
40433;SDS011;26146;51.114;5.654;2023-07-09T23:30:52;8.98;;;3.85;;
40433;SDS011;26146;51.114;5.654;2023-07-09T23:34:53;11.23;;;3.20;;
40433;SDS011;26146;51.114;5.654;2023-07-09T23:38:54;9.93;;;2.90;;
40433;SDS011;26146;51.114;5.654;2023-07-09T23:42:55;9.27;;;2.88;;
40433;SDS011;26146;51.114;5.654;2023-07-09T23:46:56;8.93;;;2.60;;
40433;SDS011;26146;51.114;5.654;2023-07-09T23:50:58;8.80;;;2.92;;
40433;SDS011;26146;51.114;5.654;2023-07-09T23:55:01;8.85;;;3.10;;
40433;SDS011;26146;51.114;5.654;2023-07-09T23:59:02;9.85;;;2.72;;
